createdAt,value
2022-12-23T00:00:46.699Z,5.74
2022-12-23T00:03:14.747Z,5.77
2022-12-23T00:05:42.883Z,5.79
2022-12-23T00:08:10.856Z,5.72
2022-12-23T00:10:41.655Z,5.74
2022-12-23T00:13:29.385Z,5.71
2022-12-23T00:16:05.843Z,5.74
2022-12-23T00:18:34.751Z,5.74
2022-12-23T00:21:08.819Z,5.75
2022-12-23T00:23:40.421Z,5.79
2022-12-23T00:26:16.554Z,5.77
2022-12-23T00:28:44.799Z,5.75
2022-12-23T00:31:14.423Z,5.83
2022-12-23T00:33:45.813Z,5.81
2022-12-23T00:36:18.833Z,5.83
2022-12-23T00:39:05.043Z,6.02
2022-12-23T00:41:52.429Z,5.95
2022-12-23T00:44:20.634Z,5.91
2022-12-23T00:46:49.286Z,5.95
2022-12-23T00:49:37.446Z,5.91
2022-12-23T00:52:08.261Z,5.86
2022-12-23T00:54:36.674Z,5.84
2022-12-23T00:57:06.397Z,5.83
2022-12-23T00:59:34.690Z,5.84
2022-12-23T01:02:20.665Z,5.82
2022-12-23T01:05:06.568Z,5.82
2022-12-23T01:07:34.627Z,5.84
2022-12-23T01:10:02.705Z,5.91
2022-12-23T01:12:32.033Z,5.91
2022-12-23T01:15:00.001Z,5.88
2022-12-23T01:17:28.057Z,5.88
2022-12-23T01:19:56.090Z,5.89
2022-12-23T01:22:24.036Z,5.84
2022-12-23T01:24:52.054Z,5.81
2022-12-23T01:27:20.051Z,5.84
2022-12-23T01:29:49.426Z,5.86
2022-12-23T01:32:17.470Z,5.88
2022-12-23T01:34:45.515Z,5.83
2022-12-23T01:37:13.565Z,5.84
2022-12-23T01:39:41.636Z,5.82
2022-12-23T01:42:32.108Z,5.85
2022-12-23T01:45:03.502Z,5.74
2022-12-23T01:47:40.148Z,5.73
2022-12-23T01:50:14.674Z,5.75
2022-12-23T01:52:49.608Z,5.82
2022-12-23T01:55:24.027Z,5.86
2022-12-23T01:57:56.312Z,5.86
2022-12-23T02:00:43.143Z,5.89
2022-12-23T02:03:28.998Z,5.82
2022-12-23T02:06:19.932Z,5.81
2022-12-23T02:09:05.627Z,5.83
2022-12-23T02:12:05.451Z,5.83
2022-12-23T02:15:14.770Z,5.82
2022-12-23T02:18:02.639Z,5.89
2022-12-23T02:21:05.318Z,5.91
2022-12-23T02:24:21.074Z,5.93
2022-12-23T02:27:13.841Z,5.91
2022-12-23T02:30:38.024Z,5.96
2022-12-23T02:33:48.997Z,5.99
2022-12-23T02:36:35.675Z,5.99
2022-12-23T02:39:11.843Z,6.00
2022-12-23T02:41:53.559Z,6.03
2022-12-23T02:44:34.736Z,6.03
2022-12-23T02:47:11.599Z,6.08
2022-12-23T02:49:45.012Z,6.05
2022-12-23T02:52:18.033Z,6.05
2022-12-23T02:54:53.631Z,6.03
2022-12-23T02:57:30.368Z,6.07
2022-12-23T03:00:01.222Z,6.08
2022-12-23T03:02:32.491Z,6.08
2022-12-23T03:05:01.249Z,6.09
2022-12-23T03:07:36.514Z,6.10
2022-12-23T03:10:14.880Z,6.24
2022-12-23T03:12:59.202Z,6.19
2022-12-23T03:15:42.395Z,6.15
2022-12-23T03:18:28.376Z,6.13
2022-12-23T03:21:08.140Z,6.11
2022-12-23T03:23:40.252Z,6.12
2022-12-23T03:26:17.849Z,6.09
2022-12-23T03:28:54.860Z,6.13
2022-12-23T03:31:30.736Z,6.10
2022-12-23T03:34:06.590Z,6.11
2022-12-23T03:36:41.177Z,6.14
2022-12-23T03:39:20.524Z,6.20
2022-12-23T03:41:56.287Z,6.28
2022-12-23T03:44:32.221Z,6.31
2022-12-23T03:47:10.605Z,6.32
2022-12-23T03:49:47.855Z,6.21
2022-12-23T03:52:21.728Z,6.14
2022-12-23T03:54:54.930Z,6.14
2022-12-23T03:57:32.577Z,6.22
2022-12-23T04:00:00.549Z,6.20
2022-12-23T04:02:41.922Z,6.27
2022-12-23T04:05:24.549Z,6.25
2022-12-23T04:07:59.119Z,6.37
2022-12-23T04:10:28.317Z,6.32
2022-12-23T04:12:56.847Z,6.30
2022-12-23T04:15:28.187Z,6.26
2022-12-23T04:17:58.332Z,6.27
2022-12-23T04:20:27.801Z,6.27
2022-12-23T04:22:55.733Z,6.28
2022-12-23T04:25:23.693Z,6.29
2022-12-23T04:27:51.949Z,6.30
2022-12-23T04:30:20.261Z,6.26
2022-12-23T04:32:48.256Z,6.24
2022-12-23T04:35:16.473Z,6.28
2022-12-23T04:37:45.803Z,6.23
2022-12-23T04:40:14.536Z,6.25
2022-12-23T04:42:42.664Z,6.24
2022-12-23T04:45:11.829Z,6.26
2022-12-23T04:47:40.620Z,6.32
2022-12-23T04:50:15.651Z,6.39
2022-12-23T04:52:45.760Z,6.41
2022-12-23T04:55:14.003Z,6.38
2022-12-23T04:57:42.000Z,6.42
2022-12-23T05:00:11.748Z,6.43
2022-12-23T05:02:39.707Z,6.40
2022-12-23T05:05:08.524Z,6.35
2022-12-23T05:07:36.545Z,6.39
2022-12-23T05:10:06.715Z,6.62
2022-12-23T05:12:34.705Z,6.80
2022-12-23T05:15:02.710Z,6.50
2022-12-23T05:17:30.686Z,6.58
2022-12-23T05:19:58.666Z,6.65
2022-12-23T05:22:26.801Z,6.54
2022-12-23T05:24:54.772Z,6.61
2022-12-23T05:27:24.576Z,6.63
2022-12-23T05:29:52.478Z,6.65
2022-12-23T05:32:20.491Z,6.83
2022-12-23T05:34:48.497Z,6.88
2022-12-23T05:37:16.464Z,6.60
2022-12-23T05:39:44.820Z,6.60
2022-12-23T05:42:12.968Z,6.39
2022-12-23T05:44:42.319Z,6.61
2022-12-23T05:47:10.271Z,6.43
2022-12-23T05:49:38.359Z,6.65
2022-12-23T05:52:06.635Z,6.70
2022-12-23T05:54:34.674Z,6.68
2022-12-23T05:57:02.633Z,6.70
2022-12-23T05:59:31.547Z,6.83
2022-12-23T06:02:01.348Z,6.64
2022-12-23T06:04:29.535Z,6.49
2022-12-23T06:06:57.615Z,6.54
2022-12-23T06:09:25.831Z,6.38
2022-12-23T06:11:53.819Z,6.34
2022-12-23T06:14:28.407Z,6.31
2022-12-23T06:16:57.105Z,6.33
2022-12-23T06:19:27.644Z,6.41
2022-12-23T06:21:55.629Z,6.40
2022-12-23T06:24:23.645Z,6.39
2022-12-23T06:26:56.819Z,6.42
2022-12-23T06:29:25.586Z,6.42
2022-12-23T06:31:53.647Z,6.37
2022-12-23T06:34:21.673Z,6.42
2022-12-23T06:36:51.087Z,6.35
2022-12-23T06:39:19.075Z,6.36
2022-12-23T06:41:47.214Z,6.29
2022-12-23T06:44:15.268Z,6.28
2022-12-23T06:46:43.233Z,6.25
2022-12-23T06:49:13.672Z,6.36
2022-12-23T06:51:42.201Z,6.29
2022-12-23T06:54:13.362Z,6.27
2022-12-23T06:56:41.718Z,6.28
2022-12-23T06:59:09.746Z,6.23
2022-12-23T07:01:37.840Z,6.33
2022-12-23T07:04:06.477Z,6.30
2022-12-23T07:06:34.618Z,6.33
2022-12-23T07:09:02.657Z,6.31
2022-12-23T07:11:32.246Z,6.35
2022-12-23T07:14:00.545Z,6.27
2022-12-23T07:16:28.652Z,6.28
2022-12-23T07:18:56.816Z,6.27
2022-12-23T07:21:28.960Z,6.26
2022-12-23T07:23:57.707Z,6.19
2022-12-23T07:26:25.767Z,6.19
2022-12-23T07:28:55.210Z,6.11
2022-12-23T07:31:23.371Z,6.17
2022-12-23T07:33:51.544Z,6.12
2022-12-23T07:36:19.613Z,6.23
2022-12-23T07:38:51.539Z,6.14
2022-12-23T07:41:20.101Z,6.11
2022-12-23T07:43:48.763Z,6.11
2022-12-23T07:46:18.246Z,6.04
2022-12-23T07:48:46.291Z,6.14
2022-12-23T07:51:14.494Z,6.14
2022-12-23T07:53:42.535Z,6.06
2022-12-23T07:56:10.551Z,6.07
2022-12-23T07:58:38.533Z,6.05
2022-12-23T08:01:08.943Z,6.02
2022-12-23T08:03:38.752Z,6.04
2022-12-23T08:06:09.625Z,6.04
2022-12-23T08:08:38.681Z,6.06
2022-12-23T08:11:09.251Z,6.07
2022-12-23T08:13:41.491Z,6.03
2022-12-23T08:16:11.453Z,6.00
2022-12-23T08:18:42.648Z,6.00
2022-12-23T08:21:15.791Z,6.14
2022-12-23T08:23:44.012Z,6.22
2022-12-23T08:26:15.103Z,6.22
2022-12-23T08:28:45.072Z,6.20
2022-12-23T08:31:16.792Z,6.11
2022-12-23T08:33:49.174Z,6.06
2022-12-23T08:36:23.346Z,6.03
2022-12-23T08:38:53.481Z,6.00
2022-12-23T08:41:25.736Z,6.05
2022-12-23T08:43:54.950Z,6.03
2022-12-23T08:46:23.697Z,6.01
2022-12-23T08:48:53.770Z,6.11
2022-12-23T08:51:25.408Z,6.05
2022-12-23T08:54:00.457Z,6.05
2022-12-23T08:56:32.775Z,6.04
2022-12-23T08:59:02.042Z,6.20
2022-12-23T09:01:33.723Z,6.24
2022-12-23T09:04:05.821Z,6.24
2022-12-23T09:06:38.958Z,6.16
2022-12-23T09:09:08.047Z,6.21
2022-12-23T09:11:36.757Z,6.08
2022-12-23T09:14:06.950Z,6.11
2022-12-23T09:16:35.321Z,6.20
2022-12-23T09:19:05.712Z,6.12
2022-12-23T09:21:33.706Z,6.22
2022-12-23T09:24:01.756Z,6.25
2022-12-23T09:26:32.303Z,6.42
2022-12-23T09:29:01.452Z,6.37
2022-12-23T09:31:36.152Z,6.33
2022-12-23T09:34:06.946Z,6.51
2022-12-23T09:36:35.055Z,6.42
2022-12-23T09:39:03.083Z,6.39
2022-12-23T09:42:01.487Z,6.49
2022-12-23T09:45:03.840Z,6.50
2022-12-23T09:47:35.303Z,6.51
2022-12-23T09:50:22.668Z,6.61
2022-12-23T09:53:02.460Z,6.43
2022-12-23T09:55:47.214Z,6.34
2022-12-23T09:58:28.491Z,6.40
2022-12-23T10:01:16.230Z,6.47
2022-12-23T10:04:42.065Z,6.60
2022-12-23T10:07:38.455Z,6.73
2022-12-23T10:10:17.936Z,6.66
2022-12-23T10:12:51.241Z,6.56
2022-12-23T10:15:29.442Z,6.69
2022-12-23T10:18:04.741Z,6.74
2022-12-23T10:20:42.936Z,6.77
2022-12-23T10:23:26.746Z,6.82
2022-12-23T10:25:54.815Z,6.75
2022-12-23T10:28:23.862Z,6.82
2022-12-23T10:31:30.891Z,6.96
2022-12-23T10:34:03.399Z,7.04
2022-12-23T10:36:45.964Z,7.09
2022-12-23T10:39:28.827Z,7.17
2022-12-23T10:42:13.411Z,7.28
2022-12-23T10:45:23.741Z,7.24
2022-12-23T10:48:13.617Z,7.39
2022-12-23T10:50:57.178Z,7.30
2022-12-23T10:53:38.321Z,7.43
2022-12-23T10:56:09.917Z,7.34
2022-12-23T10:58:43.203Z,7.43
2022-12-23T11:01:26.002Z,7.39
2022-12-23T11:04:07.185Z,7.34
2022-12-23T11:06:42.037Z,7.34
2022-12-23T11:09:18.144Z,7.18
2022-12-23T11:12:00.861Z,7.00
2022-12-23T11:14:38.793Z,7.06
2022-12-23T11:17:20.716Z,6.95
2022-12-23T11:19:49.029Z,6.99
2022-12-23T11:22:26.480Z,6.99
2022-12-23T11:24:54.411Z,6.99
2022-12-23T11:27:23.916Z,6.91
2022-12-23T11:29:55.907Z,7.02
2022-12-23T11:32:28.561Z,7.03
2022-12-23T11:34:57.837Z,7.04
2022-12-23T11:37:36.694Z,6.97
2022-12-23T11:40:15.848Z,6.97
2022-12-23T11:42:47.944Z,7.05
2022-12-23T11:45:24.002Z,6.92
2022-12-23T11:47:52.172Z,7.03
2022-12-23T11:50:34.905Z,6.99
2022-12-23T11:53:13.502Z,6.95
2022-12-23T11:55:58.295Z,7.01
2022-12-23T11:58:31.735Z,7.08
2022-12-23T12:01:08.025Z,7.00
2022-12-23T12:03:48.300Z,6.87
2022-12-23T12:06:19.687Z,6.94
2022-12-23T12:08:52.656Z,6.86
2022-12-23T12:11:27.702Z,6.88
2022-12-23T12:14:01.411Z,6.90
2022-12-23T12:16:51.693Z,6.93
2022-12-23T12:19:27.061Z,6.87
2022-12-23T12:22:03.632Z,6.92
2022-12-23T12:24:40.096Z,7.03
2022-12-23T12:27:12.215Z,7.00
2022-12-23T12:29:49.725Z,7.15
2022-12-23T12:32:30.521Z,7.30
2022-12-23T12:35:07.048Z,7.26
2022-12-23T12:37:46.024Z,7.29
2022-12-23T12:40:27.892Z,7.38
2022-12-23T12:43:05.378Z,7.07
2022-12-23T12:45:46.860Z,7.18
2022-12-23T12:48:35.623Z,7.28
2022-12-23T12:51:15.396Z,7.32
2022-12-23T12:54:05.110Z,7.28
2022-12-23T12:56:42.461Z,7.29
2022-12-23T12:59:19.028Z,7.33
2022-12-23T13:02:20.269Z,7.33
2022-12-23T13:05:13.939Z,7.21
2022-12-23T13:08:08.201Z,7.19
2022-12-23T13:10:48.093Z,7.24
2022-12-23T13:13:35.776Z,7.23
2022-12-23T13:16:18.515Z,7.24
2022-12-23T13:19:01.012Z,7.18
2022-12-23T13:21:39.147Z,7.12
2022-12-23T13:24:22.978Z,7.05
2022-12-23T13:27:06.742Z,7.02
2022-12-23T13:30:03.150Z,7.12
2022-12-23T13:33:22.669Z,7.13
2022-12-23T13:36:09.492Z,7.18
2022-12-23T13:39:08.822Z,7.24
2022-12-23T13:41:42.665Z,7.27
2022-12-23T13:44:13.506Z,7.10
2022-12-23T13:46:57.037Z,7.07
2022-12-23T13:49:44.499Z,7.10
2022-12-23T13:52:24.027Z,7.04
2022-12-23T13:55:09.689Z,7.07
2022-12-23T13:57:55.495Z,7.00
2022-12-23T14:00:35.323Z,6.96
2022-12-23T14:03:20.046Z,7.01
2022-12-23T14:05:50.716Z,7.05
2022-12-23T14:08:36.058Z,6.98
2022-12-23T14:11:17.661Z,6.95
2022-12-23T14:13:56.001Z,6.95
2022-12-23T14:16:46.177Z,6.88
2022-12-23T14:19:37.879Z,6.87
2022-12-23T14:22:34.091Z,6.92
2022-12-23T14:25:44.529Z,6.80
2022-12-23T14:28:46.803Z,6.82
2022-12-23T14:31:32.961Z,6.77
2022-12-23T14:34:07.507Z,6.76
2022-12-23T14:36:35.862Z,6.75
2022-12-23T14:39:40.531Z,6.72
2022-12-23T14:42:16.499Z,6.74
2022-12-23T14:44:51.610Z,6.72
2022-12-23T14:47:40.168Z,6.72
2022-12-23T14:50:40.407Z,6.67
2022-12-23T14:53:22.225Z,6.66
2022-12-23T14:56:11.104Z,6.64
2022-12-23T14:59:13.850Z,6.64
2022-12-23T15:01:47.475Z,6.62
2022-12-23T15:04:24.757Z,6.67
2022-12-23T15:06:57.203Z,6.71
2022-12-23T15:09:29.019Z,6.68
2022-12-23T15:12:02.272Z,6.62
2022-12-23T15:14:39.586Z,6.61
2022-12-23T15:17:19.639Z,6.69
2022-12-23T15:19:48.620Z,6.64
2022-12-23T15:22:25.207Z,6.61
2022-12-23T15:24:58.196Z,6.68
2022-12-23T15:27:28.460Z,6.65
2022-12-23T15:29:59.384Z,6.51
2022-12-23T15:32:30.163Z,6.47
2022-12-23T15:35:06.735Z,6.50
2022-12-23T15:37:35.782Z,6.51
2022-12-23T15:40:12.159Z,6.48
2022-12-23T15:42:48.168Z,6.52
2022-12-23T15:45:35.457Z,6.50
2022-12-23T15:48:05.873Z,6.46
2022-12-23T15:50:42.053Z,6.51
2022-12-23T15:53:15.955Z,6.50
2022-12-23T15:55:44.061Z,6.61
2022-12-23T15:58:22.178Z,6.61
2022-12-23T16:00:57.976Z,6.61
2022-12-23T16:03:33.945Z,6.64
2022-12-23T16:06:12.312Z,6.77
2022-12-23T16:08:40.602Z,6.76
2022-12-23T16:11:16.885Z,6.76
2022-12-23T16:13:58.868Z,6.73
2022-12-23T16:16:41.430Z,6.76
2022-12-23T16:19:38.607Z,6.71
2022-12-23T16:22:14.202Z,6.75
2022-12-23T16:24:47.779Z,6.69
2022-12-23T16:27:20.250Z,6.63
2022-12-23T16:29:49.557Z,6.33
2022-12-23T16:32:20.951Z,6.13
2022-12-23T16:34:52.551Z,6.22
2022-12-23T16:37:20.567Z,6.22
2022-12-23T16:39:48.530Z,6.27
2022-12-23T16:42:16.520Z,6.29
2022-12-23T16:44:44.481Z,6.33
2022-12-23T16:47:18.697Z,6.41
2022-12-23T16:49:46.760Z,6.44
2022-12-23T16:52:15.272Z,6.46
2022-12-23T16:54:43.269Z,6.42
2022-12-23T16:57:11.561Z,6.43
2022-12-23T16:59:41.088Z,6.51
2022-12-23T17:02:20.610Z,6.57
2022-12-23T17:04:48.586Z,6.56
2022-12-23T17:07:16.615Z,6.67
2022-12-23T17:09:44.547Z,6.65
2022-12-23T17:12:12.830Z,6.94
2022-12-23T17:14:40.831Z,7.02
2022-12-23T17:17:15.974Z,6.94
2022-12-23T17:19:45.372Z,7.12
2022-12-23T17:22:14.575Z,7.21
2022-12-23T17:24:42.588Z,7.12
2022-12-23T17:27:16.738Z,6.89
2022-12-23T17:29:45.401Z,7.08
2022-12-23T17:32:15.261Z,7.03
2022-12-23T17:34:44.900Z,6.83
2022-12-23T17:37:15.926Z,6.79
2022-12-23T17:39:45.412Z,6.63
2022-12-23T17:42:24.960Z,6.63
2022-12-23T17:44:53.886Z,6.56
2022-12-23T17:47:23.556Z,6.60
2022-12-23T17:49:55.335Z,6.67
2022-12-23T17:52:25.157Z,6.64
2022-12-23T17:54:53.377Z,6.72
2022-12-23T17:57:26.900Z,6.72
2022-12-23T17:59:57.533Z,6.84
2022-12-23T18:02:29.419Z,6.91
2022-12-23T18:04:58.895Z,6.90
2022-12-23T18:07:27.160Z,6.82
2022-12-23T18:09:58.565Z,7.10
2022-12-23T18:12:36.330Z,6.78
2022-12-23T18:15:07.003Z,6.70
2022-12-23T18:17:35.099Z,6.88
2022-12-23T18:20:05.168Z,6.94
2022-12-23T18:22:33.585Z,7.14
2022-12-23T18:25:01.529Z,6.95
2022-12-23T18:27:29.489Z,6.88
2022-12-23T18:30:00.195Z,6.97
2022-12-23T18:32:29.661Z,6.77
2022-12-23T18:34:57.709Z,6.75
2022-12-23T18:37:27.257Z,6.86
2022-12-23T18:39:55.349Z,6.85
2022-12-23T18:42:23.353Z,6.77
2022-12-23T18:44:51.308Z,6.74
2022-12-23T18:47:19.196Z,6.68
2022-12-23T18:49:47.184Z,6.59
2022-12-23T18:52:15.190Z,6.51
2022-12-23T18:54:44.571Z,6.48
2022-12-23T18:57:12.774Z,6.51
2022-12-23T18:59:40.717Z,6.61
2022-12-23T19:02:15.185Z,6.52
2022-12-23T19:04:43.185Z,6.63
2022-12-23T19:07:12.326Z,6.54
2022-12-23T19:09:40.305Z,6.55
2022-12-23T19:12:09.818Z,6.57
2022-12-23T19:14:40.208Z,6.58
2022-12-23T19:17:08.219Z,6.51
2022-12-23T19:19:36.147Z,6.60
2022-12-23T19:22:04.183Z,6.59
2022-12-23T19:24:32.192Z,6.77
2022-12-23T19:27:00.154Z,6.90
2022-12-23T19:29:29.757Z,6.78
2022-12-23T19:31:57.662Z,6.85
2022-12-23T19:34:25.780Z,6.77
2022-12-23T19:36:53.831Z,6.70
2022-12-23T19:39:23.983Z,6.69
2022-12-23T19:41:51.992Z,6.83
2022-12-23T19:44:20.193Z,6.83
2022-12-23T19:46:49.889Z,6.69
2022-12-23T19:49:20.209Z,6.72
2022-12-23T19:51:49.418Z,6.76
2022-12-23T19:54:17.651Z,6.70
2022-12-23T19:56:45.949Z,6.65
2022-12-23T19:59:13.948Z,6.67
2022-12-23T20:01:42.021Z,6.66
2022-12-23T20:04:12.523Z,6.52
2022-12-23T20:06:42.454Z,6.48
2022-12-23T20:09:13.777Z,6.49
2022-12-23T20:11:44.650Z,6.44
2022-12-23T20:14:15.383Z,6.42
2022-12-23T20:16:44.106Z,6.41
2022-12-23T20:19:13.443Z,6.41
2022-12-23T20:21:41.857Z,6.39
2022-12-23T20:24:10.773Z,6.44
2022-12-23T20:26:39.355Z,6.35
2022-12-23T20:29:08.195Z,6.34
2022-12-23T20:31:38.158Z,6.32
2022-12-23T20:34:08.442Z,6.37
2022-12-23T20:36:38.264Z,6.44
2022-12-23T20:39:06.907Z,6.37
2022-12-23T20:41:35.361Z,6.40
2022-12-23T20:44:33.229Z,6.35
2022-12-23T20:46:51.757Z,6.34
2022-12-23T20:49:19.755Z,6.28
2022-12-23T20:51:49.197Z,6.30
2022-12-23T20:54:17.150Z,6.20
2022-12-23T20:56:45.161Z,6.25
2022-12-23T20:59:13.237Z,6.21
2022-12-23T21:01:42.271Z,6.23
2022-12-23T21:04:15.675Z,6.20
2022-12-23T21:06:45.696Z,6.21
2022-12-23T21:09:17.312Z,6.22
2022-12-23T21:11:48.038Z,6.28
2022-12-23T21:14:17.268Z,6.23
2022-12-23T21:16:46.062Z,6.24
2022-12-23T21:19:18.075Z,6.19
2022-12-23T21:21:47.383Z,6.17
2022-12-23T21:24:19.917Z,6.19
2022-12-23T21:26:55.688Z,6.15
2022-12-23T21:29:24.769Z,6.22
2022-12-23T21:31:52.891Z,6.29
2022-12-23T21:34:21.054Z,6.20
2022-12-23T21:36:49.116Z,6.13
2022-12-23T21:39:18.546Z,6.04
2022-12-23T21:41:46.631Z,5.99
2022-12-23T21:44:15.568Z,6.04
2022-12-23T21:46:43.820Z,6.02
2022-12-23T21:49:12.599Z,5.99
2022-12-23T21:51:42.051Z,5.97
2022-12-23T21:54:11.040Z,6.04
2022-12-23T21:56:41.914Z,6.04
2022-12-23T21:59:14.481Z,6.02
2022-12-23T22:01:43.871Z,5.97
2022-12-23T22:04:12.163Z,5.90
2022-12-23T22:06:44.512Z,6.00
2022-12-23T22:09:15.877Z,6.02
2022-12-23T22:11:46.324Z,6.03
2022-12-23T22:14:17.347Z,5.97
2022-12-23T22:16:45.530Z,5.88
2022-12-23T22:19:14.216Z,5.82
2022-12-23T22:21:42.644Z,5.83
2022-12-23T22:24:10.978Z,5.85
2022-12-23T22:26:41.304Z,5.80
2022-12-23T22:29:13.005Z,5.78
2022-12-23T22:31:45.809Z,5.80
2022-12-23T22:34:17.294Z,5.77
2022-12-23T22:36:45.585Z,5.71
2022-12-23T22:39:20.579Z,5.70
2022-12-23T22:41:49.531Z,5.70
2022-12-23T22:44:20.145Z,5.68
2022-12-23T22:46:48.566Z,5.69
2022-12-23T22:49:17.892Z,5.70
2022-12-23T22:51:46.113Z,5.73
2022-12-23T22:54:14.362Z,5.71
2022-12-23T22:56:42.492Z,5.67
2022-12-23T22:59:23.085Z,5.74
2022-12-23T23:01:53.445Z,5.68
2022-12-23T23:04:22.011Z,5.67
2022-12-23T23:06:50.113Z,5.66
2022-12-23T23:09:21.645Z,5.61
2022-12-23T23:11:50.700Z,5.61
2022-12-23T23:14:19.641Z,5.67
2022-12-23T23:16:49.157Z,5.63
2022-12-23T23:19:20.153Z,5.65
2022-12-23T23:21:48.832Z,5.64
2022-12-23T23:24:17.523Z,5.73
2022-12-23T23:26:45.819Z,5.76
2022-12-23T23:29:13.924Z,5.75
2022-12-23T23:31:43.615Z,5.78
2022-12-23T23:34:14.221Z,5.76
2022-12-23T23:36:42.673Z,5.71
2022-12-23T23:39:14.058Z,5.68
2022-12-23T23:41:42.501Z,5.63
2022-12-23T23:44:11.948Z,5.58
2022-12-23T23:46:40.812Z,5.54
2022-12-23T23:49:08.741Z,5.48
2022-12-23T23:51:39.040Z,5.48
2022-12-23T23:54:07.715Z,5.45
2022-12-23T23:56:39.069Z,5.41
2022-12-23T23:59:09.017Z,5.43
